sensor_id;sensor_type;location;lat;lon;timestamp;pressure;altitude;pressure_sealevel;temperature;humidity
38227;BME280;24026;49.446;8.576;2023-05-01T00:00:30;100503.78;;;16.82;50.88
38227;BME280;24026;49.446;8.576;2023-05-01T00:02:50;100508.34;;;16.81;50.99
38227;BME280;24026;49.446;8.576;2023-05-01T00:05:11;100497.59;;;16.81;50.83
38227;BME280;24026;49.446;8.576;2023-05-01T00:07:31;100499.22;;;16.82;50.96
38227;BME280;24026;49.446;8.576;2023-05-01T00:09:52;100494.94;;;16.81;51.04
38227;BME280;24026;49.446;8.576;2023-05-01T00:12:12;100490.91;;;16.79;51.11
38227;BME280;24026;49.446;8.576;2023-05-01T00:14:32;100490.38;;;16.77;51.14
38227;BME280;24026;49.446;8.576;2023-05-01T00:16:53;100482.63;;;16.75;51.13
38227;BME280;24026;49.446;8.576;2023-05-01T00:19:13;100478.06;;;16.76;51.21
38227;BME280;24026;49.446;8.576;2023-05-01T00:21:37;100471.88;;;16.75;51.05
38227;BME280;24026;49.446;8.576;2023-05-01T00:23:57;100473.78;;;16.75;51.25
38227;BME280;24026;49.446;8.576;2023-05-01T00:26:17;100467.06;;;16.72;51.20
38227;BME280;24026;49.446;8.576;2023-05-01T00:28:38;100465.50;;;16.71;51.22
38227;BME280;24026;49.446;8.576;2023-05-01T00:30:58;100475.13;;;16.72;51.10
38227;BME280;24026;49.446;8.576;2023-05-01T00:33:18;100461.69;;;16.72;51.10
38227;BME280;24026;49.446;8.576;2023-05-01T00:35:38;100458.50;;;16.70;51.19
38227;BME280;24026;49.446;8.576;2023-05-01T00:37:59;100460.41;;;16.70;51.23
38227;BME280;24026;49.446;8.576;2023-05-01T00:40:19;100457.72;;;16.70;51.38
38227;BME280;24026;49.446;8.576;2023-05-01T00:42:39;100461.47;;;16.68;51.20
38227;BME280;24026;49.446;8.576;2023-05-01T00:45:03;100456.38;;;16.67;51.29
38227;BME280;24026;49.446;8.576;2023-05-01T00:47:24;100450.22;;;16.66;51.15
38227;BME280;24026;49.446;8.576;2023-05-01T00:49:44;100449.44;;;16.66;51.06
38227;BME280;24026;49.446;8.576;2023-05-01T00:52:05;100449.94;;;16.68;51.44
38227;BME280;24026;49.446;8.576;2023-05-01T00:54:25;100444.06;;;16.66;51.33
38227;BME280;24026;49.446;8.576;2023-05-01T00:56:47;100445.13;;;16.65;51.13
38227;BME280;24026;49.446;8.576;2023-05-01T00:59:07;100441.66;;;16.64;51.16
38227;BME280;24026;49.446;8.576;2023-05-01T01:01:28;100443.56;;;16.64;51.23
38227;BME280;24026;49.446;8.576;2023-05-01T01:03:48;100440.88;;;16.64;51.16
38227;BME280;24026;49.446;8.576;2023-05-01T01:08:38;100441.16;;;16.62;51.13
38227;BME280;24026;49.446;8.576;2023-05-01T01:11:07;100436.56;;;16.63;51.36
38227;BME280;24026;49.446;8.576;2023-05-01T01:13:38;100430.41;;;16.62;50.98
38227;BME280;24026;49.446;8.576;2023-05-01T01:16:03;100424.22;;;16.62;51.04
38227;BME280;24026;49.446;8.576;2023-05-01T01:18:47;100425.31;;;16.61;51.13
38227;BME280;24026;49.446;8.576;2023-05-01T01:28:23;100415.16;;;16.58;50.97
38227;BME280;24026;49.446;8.576;2023-05-01T01:31:12;100417.03;;;16.57;50.95
38227;BME280;24026;49.446;8.576;2023-05-01T01:36:18;100410.84;;;16.57;50.94
38227;BME280;24026;49.446;8.576;2023-05-01T01:38:43;100410.84;;;16.57;51.12
38227;BME280;24026;49.446;8.576;2023-05-01T01:41:09;100420.00;;;16.56;50.99
38227;BME280;24026;49.446;8.576;2023-05-01T01:43:32;100404.19;;;16.54;51.03
38227;BME280;24026;49.446;8.576;2023-05-01T01:45:58;100411.41;;;16.54;50.74
38227;BME280;24026;49.446;8.576;2023-05-01T01:48:21;100415.69;;;16.55;51.02
38227;BME280;24026;49.446;8.576;2023-05-01T01:50:42;100415.19;;;16.53;50.83
38227;BME280;24026;49.446;8.576;2023-05-01T01:53:04;100412.50;;;16.53;50.79
38227;BME280;24026;49.446;8.576;2023-05-01T01:55:26;100412.50;;;16.53;50.78
38227;BME280;24026;49.446;8.576;2023-05-01T01:57:48;100410.09;;;16.51;50.95
38227;BME280;24026;49.446;8.576;2023-05-01T02:00:09;100411.16;;;16.50;50.96
38227;BME280;24026;49.446;8.576;2023-05-01T02:02:30;100414.69;;;16.51;50.79
38227;BME280;24026;49.446;8.576;2023-05-01T02:04:50;100413.84;;;16.50;50.73
38227;BME280;24026;49.446;8.576;2023-05-01T02:07:11;100418.44;;;16.49;50.65
38227;BME280;24026;49.446;8.576;2023-05-01T02:09:33;100412.00;;;16.51;50.67
38227;BME280;24026;49.446;8.576;2023-05-01T02:11:54;100418.44;;;16.49;50.80
38227;BME280;24026;49.446;8.576;2023-05-01T02:14:15;100414.94;;;16.49;50.60
38227;BME280;24026;49.446;8.576;2023-05-01T02:16:37;100414.41;;;16.47;50.81
38227;BME280;24026;49.446;8.576;2023-05-01T02:19:00;100409.31;;;16.45;50.68
38227;BME280;24026;49.446;8.576;2023-05-01T02:21:21;100420.88;;;16.46;50.89
38227;BME280;24026;49.446;8.576;2023-05-01T02:23:42;100418.19;;;16.46;50.74
38227;BME280;24026;49.446;8.576;2023-05-01T02:26:03;100418.97;;;16.46;50.68
38227;BME280;24026;49.446;8.576;2023-05-01T02:28:24;100413.09;;;16.44;50.59
38227;BME280;24026;49.446;8.576;2023-05-01T02:30:46;100415.78;;;16.44;50.54
38227;BME280;24026;49.446;8.576;2023-05-01T02:33:06;100409.63;;;16.44;50.49
38227;BME280;24026;49.446;8.576;2023-05-01T02:35:27;100411.78;;;16.42;50.50
38227;BME280;24026;49.446;8.576;2023-05-01T02:37:48;100409.38;;;16.40;50.59
38227;BME280;24026;49.446;8.576;2023-05-01T02:40:08;100403.75;;;16.37;50.65
38227;BME280;24026;49.446;8.576;2023-05-01T02:42:30;100401.59;;;16.39;50.79
38227;BME280;24026;49.446;8.576;2023-05-01T02:44:53;100404.00;;;16.40;50.72
38227;BME280;24026;49.446;8.576;2023-05-01T02:47:14;100398.34;;;16.42;50.70
38227;BME280;24026;49.446;8.576;2023-05-01T02:49:36;100404.81;;;16.41;50.68
38227;BME280;24026;49.446;8.576;2023-05-01T02:51:57;100398.34;;;16.42;50.42
38227;BME280;24026;49.446;8.576;2023-05-01T02:54:18;100401.88;;;16.42;50.54
38227;BME280;24026;49.446;8.576;2023-05-01T02:56:39;100399.19;;;16.42;50.67
38227;BME280;24026;49.446;8.576;2023-05-01T02:59:00;100390.34;;;16.37;50.67
38227;BME280;24026;49.446;8.576;2023-05-01T03:01:20;100392.47;;;16.40;50.56
38227;BME280;24026;49.446;8.576;2023-05-01T03:03:40;100391.41;;;16.41;50.50
38227;BME280;24026;49.446;8.576;2023-05-01T03:06:01;100385.81;;;16.37;50.63
38227;BME280;24026;49.446;8.576;2023-05-01T03:08:22;100386.09;;;16.36;50.51
38227;BME280;24026;49.446;8.576;2023-05-01T03:10:42;100376.44;;;16.35;50.74
38227;BME280;24026;49.446;8.576;2023-05-01T03:13:03;100379.63;;;16.37;50.62
38227;BME280;24026;49.446;8.576;2023-05-01T03:15:23;100375.34;;;16.36;50.51
38227;BME280;24026;49.446;8.576;2023-05-01T03:17:43;100379.09;;;16.35;50.47
38227;BME280;24026;49.446;8.576;2023-05-01T03:20:04;100372.97;;;16.34;50.63
38227;BME280;24026;49.446;8.576;2023-05-01T03:22:27;100372.69;;;16.36;50.46
38227;BME280;24026;49.446;8.576;2023-05-01T03:24:47;100369.44;;;16.34;50.38
38227;BME280;24026;49.446;8.576;2023-05-01T03:27:09;100374.81;;;16.34;50.58
38227;BME280;24026;49.446;8.576;2023-05-01T03:29:30;100368.66;;;16.33;50.40
38227;BME280;24026;49.446;8.576;2023-05-01T03:31:50;100370.81;;;16.31;50.43
38227;BME280;24026;49.446;8.576;2023-05-01T03:34:11;100367.59;;;16.34;50.39
38227;BME280;24026;49.446;8.576;2023-05-01T03:36:31;100370.81;;;16.31;50.35
38227;BME280;24026;49.446;8.576;2023-05-01T03:38:52;100365.19;;;16.33;50.34
38227;BME280;24026;49.446;8.576;2023-05-01T03:41:13;100365.47;;;16.31;50.55
38227;BME280;24026;49.446;8.576;2023-05-01T03:43:33;100366.25;;;16.32;50.53
38227;BME280;24026;49.446;8.576;2023-05-01T03:45:53;100363.84;;;16.30;50.62
38227;BME280;24026;49.446;8.576;2023-05-01T03:48:14;100370.03;;;16.30;50.54
38227;BME280;24026;49.446;8.576;2023-05-01T03:50:34;100361.16;;;16.30;50.43
38227;BME280;24026;49.446;8.576;2023-05-01T03:52:54;100359.59;;;16.29;50.54
38227;BME280;24026;49.446;8.576;2023-05-01T03:55:14;100360.09;;;16.31;50.52
38227;BME280;24026;49.446;8.576;2023-05-01T03:57:35;100359.00;;;16.32;50.35
38227;BME280;24026;49.446;8.576;2023-05-01T03:59:56;100361.44;;;16.28;50.48
38227;BME280;24026;49.446;8.576;2023-05-01T04:02:16;100351.53;;;16.29;50.55
38227;BME280;24026;49.446;8.576;2023-05-01T04:04:36;100359.88;;;16.27;50.49
38227;BME280;24026;49.446;8.576;2023-05-01T04:06:57;100355.28;;;16.28;50.58
38227;BME280;24026;49.446;8.576;2023-05-01T04:09:17;100354.78;;;16.26;50.65
38227;BME280;24026;49.446;8.576;2023-05-01T04:11:37;100351.28;;;16.25;50.54
38227;BME280;24026;49.446;8.576;2023-05-01T04:13:58;100359.03;;;16.27;50.42
38227;BME280;24026;49.446;8.576;2023-05-01T04:16:18;100355.06;;;16.24;50.66
38227;BME280;24026;49.446;8.576;2023-05-01T04:18:38;100353.97;;;16.25;50.64
38227;BME280;24026;49.446;8.576;2023-05-01T04:20:58;100357.47;;;16.26;50.56
38227;BME280;24026;49.446;8.576;2023-05-01T04:23:18;100360.41;;;16.24;50.67
38227;BME280;24026;49.446;8.576;2023-05-01T04:25:39;100351.59;;;16.24;50.48
38227;BME280;24026;49.446;8.576;2023-05-01T04:27:59;100356.94;;;16.24;50.48
38227;BME280;24026;49.446;8.576;2023-05-01T04:30:20;100353.44;;;16.23;50.60
38227;BME280;24026;49.446;8.576;2023-05-01T04:32:40;100355.34;;;16.23;50.67
38227;BME280;24026;49.446;8.576;2023-05-01T04:35:00;100355.63;;;16.21;50.64
38227;BME280;24026;49.446;8.576;2023-05-01T04:37:20;100359.09;;;16.22;50.59
38227;BME280;24026;49.446;8.576;2023-05-01T04:39:41;100356.41;;;16.22;50.60
38227;BME280;24026;49.446;8.576;2023-05-01T04:42:04;100360.97;;;16.21;50.42
38227;BME280;24026;49.446;8.576;2023-05-01T04:44:24;100357.50;;;16.21;50.59
38227;BME280;24026;49.446;8.576;2023-05-01T04:46:44;100353.22;;;16.20;50.58
38227;BME280;24026;49.446;8.576;2023-05-01T04:49:05;100360.19;;;16.21;50.47
38227;BME280;24026;49.446;8.576;2023-05-01T04:51:25;100362.03;;;16.20;50.45
38227;BME280;24026;49.446;8.576;2023-05-01T04:53:47;100363.13;;;16.19;50.60
38227;BME280;24026;49.446;8.576;2023-05-01T04:56:08;100362.03;;;16.20;50.55
38227;BME280;24026;49.446;8.576;2023-05-01T04:58:28;100364.72;;;16.20;50.48
38227;BME280;24026;49.446;8.576;2023-05-01T05:00:48;100362.31;;;16.19;50.42
38227;BME280;24026;49.446;8.576;2023-05-01T05:03:08;100365.81;;;16.19;50.40
38227;BME280;24026;49.446;8.576;2023-05-01T05:05:29;100364.72;;;16.20;50.50
38227;BME280;24026;49.446;8.576;2023-05-01T05:07:50;100361.25;;;16.20;50.52
38227;BME280;24026;49.446;8.576;2023-05-01T05:10:10;100363.13;;;16.19;50.31
38227;BME280;24026;49.446;8.576;2023-05-01T05:12:30;100358.84;;;16.18;50.47
38227;BME280;24026;49.446;8.576;2023-05-01T05:14:50;100357.78;;;16.19;50.47
38227;BME280;24026;49.446;8.576;2023-05-01T05:17:11;100356.69;;;16.20;50.46
38227;BME280;24026;49.446;8.576;2023-05-01T05:19:31;100365.81;;;16.19;50.42
38227;BME280;24026;49.446;8.576;2023-05-01T05:21:52;100360.19;;;16.21;50.34
38227;BME280;24026;49.446;8.576;2023-05-01T05:24:12;100370.91;;;16.21;50.21
38227;BME280;24026;49.446;8.576;2023-05-01T05:26:32;100366.63;;;16.20;50.30
38227;BME280;24026;49.446;8.576;2023-05-01T05:28:53;100371.97;;;16.20;50.45
38227;BME280;24026;49.446;8.576;2023-05-01T05:31:13;100367.94;;;16.22;50.28
38227;BME280;24026;49.446;8.576;2023-05-01T05:33:33;100365.53;;;16.21;50.26
38227;BME280;24026;49.446;8.576;2023-05-01T05:35:53;100363.66;;;16.21;50.17
38227;BME280;24026;49.446;8.576;2023-05-01T05:38:14;100362.03;;;16.20;50.33
38227;BME280;24026;49.446;8.576;2023-05-01T05:40:34;100367.13;;;16.22;50.12
38227;BME280;24026;49.446;8.576;2023-05-01T05:42:55;100368.75;;;16.23;50.17
38227;BME280;24026;49.446;8.576;2023-05-01T05:45:16;100371.44;;;16.23;50.22
38227;BME280;24026;49.446;8.576;2023-05-01T05:47:36;100369.03;;;16.21;50.23
38227;BME280;24026;49.446;8.576;2023-05-01T05:49:56;100367.13;;;16.22;50.21
38227;BME280;24026;49.446;8.576;2023-05-01T05:52:17;100367.69;;;16.24;50.04
38227;BME280;24026;49.446;8.576;2023-05-01T05:54:37;100365.00;;;16.24;50.16
38227;BME280;24026;49.446;8.576;2023-05-01T05:56:57;100368.75;;;16.23;50.27
38227;BME280;24026;49.446;8.576;2023-05-01T05:59:17;100370.63;;;16.22;50.29
38227;BME280;24026;49.446;8.576;2023-05-01T06:01:38;100366.84;;;16.23;50.05
38227;BME280;24026;49.446;8.576;2023-05-01T06:03:59;100366.56;;;16.25;49.99
38227;BME280;24026;49.446;8.576;2023-05-01T06:06:19;100367.09;;;16.27;49.89
38227;BME280;24026;49.446;8.576;2023-05-01T06:08:40;100367.09;;;16.27;50.05
38227;BME280;24026;49.446;8.576;2023-05-01T06:11:00;100358.75;;;16.28;50.06
38227;BME280;24026;49.446;8.576;2023-05-01T06:13:20;100359.31;;;16.30;50.02
38227;BME280;24026;49.446;8.576;2023-05-01T06:15:41;100357.69;;;16.29;49.91
38227;BME280;24026;49.446;8.576;2023-05-01T06:18:02;100363.84;;;16.30;49.81
38227;BME280;24026;49.446;8.576;2023-05-01T06:20:22;100357.13;;;16.33;49.87
38227;BME280;24026;49.446;8.576;2023-05-01T06:22:43;100353.34;;;16.34;49.87
38227;BME280;24026;49.446;8.576;2023-05-01T06:25:03;100358.44;;;16.35;49.92
38227;BME280;24026;49.446;8.576;2023-05-01T06:27:23;100355.75;;;16.35;49.73
38227;BME280;24026;49.446;8.576;2023-05-01T06:29:44;100352.53;;;16.38;49.89
38227;BME280;24026;49.446;8.576;2023-05-01T06:32:04;100351.47;;;16.39;49.79
38227;BME280;24026;49.446;8.576;2023-05-01T06:34:24;100357.34;;;16.41;49.68
38227;BME280;24026;49.446;8.576;2023-05-01T06:36:44;100356.53;;;16.41;49.67
38227;BME280;24026;49.446;8.576;2023-05-01T06:39:05;100359.75;;;16.43;49.75
38227;BME280;24026;49.446;8.576;2023-05-01T06:41:25;100352.75;;;16.42;49.77
38227;BME280;24026;49.446;8.576;2023-05-01T06:43:46;100354.88;;;16.45;49.70
38227;BME280;24026;49.446;8.576;2023-05-01T06:46:06;100355.69;;;16.45;49.71
38227;BME280;24026;49.446;8.576;2023-05-01T06:48:26;100352.72;;;16.47;49.71
38227;BME280;24026;49.446;8.576;2023-05-01T06:50:46;100350.31;;;16.45;49.66
38227;BME280;24026;49.446;8.576;2023-05-01T06:53:07;100360.75;;;16.47;49.71
38227;BME280;24026;49.446;8.576;2023-05-01T06:55:27;100356.72;;;16.49;49.49
38227;BME280;24026;49.446;8.576;2023-05-01T06:57:50;100354.06;;;16.49;49.46
38227;BME280;24026;49.446;8.576;2023-05-01T07:00:10;100360.22;;;16.50;49.55
38227;BME280;24026;49.446;8.576;2023-05-01T07:02:31;100366.91;;;16.53;49.47
38227;BME280;24026;49.446;8.576;2023-05-01T07:04:51;100358.84;;;16.53;49.55
38227;BME280;24026;49.446;8.576;2023-05-01T07:07:11;100363.13;;;16.54;49.47
38227;BME280;24026;49.446;8.576;2023-05-01T07:09:32;100360.44;;;16.54;49.45
38227;BME280;24026;49.446;8.576;2023-05-01T07:11:52;100364.72;;;16.55;49.55
38227;BME280;24026;49.446;8.576;2023-05-01T07:14:12;100364.44;;;16.56;49.59
38227;BME280;24026;49.446;8.576;2023-05-01T07:16:33;100364.16;;;16.58;49.63
38227;BME280;24026;49.446;8.576;2023-05-01T07:18:53;100364.16;;;16.58;49.59
38227;BME280;24026;49.446;8.576;2023-05-01T07:21:13;100368.44;;;16.59;49.41
38227;BME280;24026;49.446;8.576;2023-05-01T07:23:33;100363.06;;;16.59;49.40
38227;BME280;24026;49.446;8.576;2023-05-01T07:25:54;100364.69;;;16.60;49.64
38227;BME280;24026;49.446;8.576;2023-05-01T07:28:14;100366.03;;;16.62;49.45
38227;BME280;24026;49.446;8.576;2023-05-01T07:30:37;100366.03;;;16.62;49.45
38227;BME280;24026;49.446;8.576;2023-05-01T07:32:57;100372.97;;;16.63;49.41
38227;BME280;24026;49.446;8.576;2023-05-01T07:35:18;100377.53;;;16.63;49.43
38227;BME280;24026;49.446;8.576;2023-05-01T07:37:38;100374.56;;;16.64;49.34
38227;BME280;24026;49.446;8.576;2023-05-01T07:39:58;100369.22;;;16.64;49.52
38227;BME280;24026;49.446;8.576;2023-05-01T07:42:18;100365.75;;;16.64;49.41
38227;BME280;24026;49.446;8.576;2023-05-01T07:44:39;100363.84;;;16.64;49.45
38227;BME280;24026;49.446;8.576;2023-05-01T07:47:02;100374.56;;;16.64;49.55
38227;BME280;24026;49.446;8.576;2023-05-01T07:49:23;100375.38;;;16.65;49.66
38227;BME280;24026;49.446;8.576;2023-05-01T07:51:43;100373.78;;;16.64;49.66
38227;BME280;24026;49.446;8.576;2023-05-01T07:54:04;100371.09;;;16.64;49.63
38227;BME280;24026;49.446;8.576;2023-05-01T07:56:24;100365.75;;;16.64;49.53
38227;BME280;24026;49.446;8.576;2023-05-01T07:58:45;100367.31;;;16.65;49.65
38227;BME280;24026;49.446;8.576;2023-05-01T08:01:05;100367.03;;;16.66;49.71
38227;BME280;24026;49.446;8.576;2023-05-01T08:03:29;100365.97;;;16.67;49.55
38227;BME280;24026;49.446;8.576;2023-05-01T08:05:50;100369.44;;;16.68;49.49
38227;BME280;24026;49.446;8.576;2023-05-01T08:08:10;100362.47;;;16.67;49.58
38227;BME280;24026;49.446;8.576;2023-05-01T08:10:32;100357.91;;;16.67;49.71
38227;BME280;24026;49.446;8.576;2023-05-01T08:12:52;100365.97;;;16.67;49.67
38227;BME280;24026;49.446;8.576;2023-05-01T08:15:12;100370.22;;;16.68;49.59
38227;BME280;24026;49.446;8.576;2023-05-01T08:17:36;100371.56;;;16.71;49.53
38227;BME280;24026;49.446;8.576;2023-05-01T08:19:56;100369.66;;;16.72;49.65
38227;BME280;24026;49.446;8.576;2023-05-01T08:22:16;100375.84;;;16.72;49.51
38227;BME280;24026;49.446;8.576;2023-05-01T08:24:37;100372.34;;;16.72;49.50
38227;BME280;24026;49.446;8.576;2023-05-01T08:26:57;100372.88;;;16.74;49.50
38227;BME280;24026;49.446;8.576;2023-05-01T08:29:18;100372.06;;;16.73;49.83
38227;BME280;24026;49.446;8.576;2023-05-01T08:31:38;100373.69;;;16.74;49.62
38227;BME280;24026;49.446;8.576;2023-05-01T08:33:58;100373.97;;;16.73;49.71
38227;BME280;24026;49.446;8.576;2023-05-01T08:36:18;100366.44;;;16.75;49.67
38227;BME280;24026;49.446;8.576;2023-05-01T08:38:39;100372.59;;;16.75;49.89
38227;BME280;24026;49.446;8.576;2023-05-01T08:40:59;100370.72;;;16.76;49.58
38227;BME280;24026;49.446;8.576;2023-05-01T08:43:20;100374.19;;;16.76;49.73
38227;BME280;24026;49.446;8.576;2023-05-01T08:45:41;100375.81;;;16.77;49.59
38227;BME280;24026;49.446;8.576;2023-05-01T08:48:05;100372.03;;;16.78;49.53
38227;BME280;24026;49.446;8.576;2023-05-01T08:50:25;100368.28;;;16.79;49.41
38227;BME280;24026;49.446;8.576;2023-05-01T08:52:46;100370.13;;;16.79;49.49
38227;BME280;24026;49.446;8.576;2023-05-01T08:55:10;100373.34;;;16.81;49.43
38227;BME280;24026;49.446;8.576;2023-05-01T08:57:31;100365.31;;;16.81;49.56
38227;BME280;24026;49.446;8.576;2023-05-01T08:59:52;100365.03;;;16.82;49.56
38227;BME280;24026;49.446;8.576;2023-05-01T09:02:15;100365.56;;;16.84;49.55
38227;BME280;24026;49.446;8.576;2023-05-01T09:04:36;100367.16;;;16.85;49.29
38227;BME280;24026;49.446;8.576;2023-05-01T09:06:58;100366.06;;;16.87;49.28
38227;BME280;24026;49.446;8.576;2023-05-01T09:09:19;100374.91;;;16.87;49.19
38227;BME280;24026;49.446;8.576;2023-05-01T09:11:40;100366.59;;;16.89;49.32
38227;BME280;24026;49.446;8.576;2023-05-01T09:14:02;100370.09;;;16.89;49.42
38227;BME280;24026;49.446;8.576;2023-05-01T09:16:28;100370.59;;;16.91;49.20
38227;BME280;24026;49.446;8.576;2023-05-01T09:18:48;100363.34;;;16.92;49.20
38227;BME280;24026;49.446;8.576;2023-05-01T09:21:09;100364.13;;;16.92;49.03
38227;BME280;24026;49.446;8.576;2023-05-01T09:23:29;100361.16;;;16.94;49.18
38227;BME280;24026;49.446;8.576;2023-05-01T09:25:50;100368.13;;;16.95;49.21
38227;BME280;24026;49.446;8.576;2023-05-01T09:28:10;100368.13;;;16.95;48.94
38227;BME280;24026;49.446;8.576;2023-05-01T09:30:31;100365.19;;;16.96;49.13
38227;BME280;24026;49.446;8.576;2023-05-01T09:33:02;100367.56;;;16.98;49.18
38227;BME280;24026;49.446;8.576;2023-05-01T09:35:23;100367.56;;;16.98;48.92
38227;BME280;24026;49.446;8.576;2023-05-01T09:37:43;100369.16;;;16.99;48.71
38227;BME280;24026;49.446;8.576;2023-05-01T09:40:09;100368.09;;;17.00;48.79
38227;BME280;24026;49.446;8.576;2023-05-01T09:42:30;100366.72;;;17.02;48.73
38227;BME280;24026;49.446;8.576;2023-05-01T09:44:53;100361.38;;;17.02;48.86
38227;BME280;24026;49.446;8.576;2023-05-01T09:47:19;100364.56;;;17.04;48.56
38227;BME280;24026;49.446;8.576;2023-05-01T09:49:45;100363.44;;;17.06;48.53
38227;BME280;24026;49.446;8.576;2023-05-01T09:52:10;100373.13;;;17.07;48.59
38227;BME280;24026;49.446;8.576;2023-05-01T09:54:30;100363.72;;;17.09;48.63
38227;BME280;24026;49.446;8.576;2023-05-01T09:56:51;100359.91;;;17.10;48.56
38227;BME280;24026;49.446;8.576;2023-05-01T09:59:18;100363.09;;;17.12;48.18
38227;BME280;24026;49.446;8.576;2023-05-01T10:01:42;100355.59;;;17.14;48.25
38227;BME280;24026;49.446;8.576;2023-05-01T10:04:03;100360.69;;;17.16;48.05
38227;BME280;24026;49.446;8.576;2023-05-01T10:06:26;100361.19;;;17.18;48.28
38227;BME280;24026;49.446;8.576;2023-05-01T10:08:49;100364.09;;;17.21;48.14
38227;BME280;24026;49.446;8.576;2023-05-01T10:11:10;100357.66;;;17.22;48.09
38227;BME280;24026;49.446;8.576;2023-05-01T10:13:30;100367.78;;;17.26;47.94
38227;BME280;24026;49.446;8.576;2023-05-01T10:15:51;100361.06;;;17.28;47.96
38227;BME280;24026;49.446;8.576;2023-05-01T10:18:11;100360.78;;;17.30;47.84
38227;BME280;24026;49.446;8.576;2023-05-01T10:20:31;100363.19;;;17.31;47.63
38227;BME280;24026;49.446;8.576;2023-05-01T10:22:51;100360.72;;;17.35;47.50
38227;BME280;24026;49.446;8.576;2023-05-01T10:25:13;100365.50;;;17.38;47.42
38227;BME280;24026;49.446;8.576;2023-05-01T10:27:34;100362.53;;;17.39;47.42
38227;BME280;24026;49.446;8.576;2023-05-01T10:29:55;100367.63;;;17.41;47.21
38227;BME280;24026;49.446;8.576;2023-05-01T10:32:16;100371.63;;;17.44;47.29
38227;BME280;24026;49.446;8.576;2023-05-01T10:34:37;100366.47;;;17.47;47.11
38227;BME280;24026;49.446;8.576;2023-05-01T10:36:59;100362.41;;;17.50;47.23
38227;BME280;24026;49.446;8.576;2023-05-01T10:39:31;100355.16;;;17.50;47.04
38227;BME280;24026;49.446;8.576;2023-05-01T10:44:18;100360.44;;;17.55;46.70
38227;BME280;24026;49.446;8.576;2023-05-01T10:46:39;100359.38;;;17.56;46.65
38227;BME280;24026;49.446;8.576;2023-05-01T10:48:59;100356.13;;;17.59;46.64
38227;BME280;24026;49.446;8.576;2023-05-01T10:51:20;100350.97;;;17.63;46.69
38227;BME280;24026;49.446;8.576;2023-05-01T10:53:42;100358.72;;;17.65;46.56
38227;BME280;24026;49.446;8.576;2023-05-01T10:56:02;100343.09;;;17.67;46.35
38227;BME280;24026;49.446;8.576;2023-05-01T11:03:39;100347.56;;;17.76;46.29
38227;BME280;24026;49.446;8.576;2023-05-01T11:08:32;100345.06;;;17.80;46.09
38227;BME280;24026;49.446;8.576;2023-05-01T11:10:53;100348.25;;;17.82;46.22
38227;BME280;24026;49.446;8.576;2023-05-01T11:13:14;100349.88;;;17.83;45.78
38227;BME280;24026;49.446;8.576;2023-05-01T11:15:34;100336.94;;;17.85;45.84
38227;BME280;24026;49.446;8.576;2023-05-01T11:17:54;100333.69;;;17.88;46.11
38227;BME280;24026;49.446;8.576;2023-05-01T11:22:44;100325.84;;;17.92;45.65
38227;BME280;24026;49.446;8.576;2023-05-01T11:25:18;100330.16;;;17.93;45.86
38227;BME280;24026;49.446;8.576;2023-05-01T11:27:39;100326.34;;;17.94;45.60
38227;BME280;24026;49.446;8.576;2023-05-01T11:29:59;100333.03;;;17.96;45.46
38227;BME280;24026;49.446;8.576;2023-05-01T11:32:23;100321.22;;;17.98;45.39
38227;BME280;24026;49.446;8.576;2023-05-01T11:34:45;100327.59;;;18.02;45.64
38227;BME280;24026;49.446;8.576;2023-05-01T11:37:07;100325.41;;;18.04;45.44
38227;BME280;24026;49.446;8.576;2023-05-01T11:39:27;100332.38;;;18.05;45.55
38227;BME280;24026;49.446;8.576;2023-05-01T11:41:48;100330.19;;;18.07;45.20
38227;BME280;24026;49.446;8.576;2023-05-01T11:44:10;100335.00;;;18.10;45.15
38227;BME280;24026;49.446;8.576;2023-05-01T11:46:31;100327.41;;;18.12;45.00
38227;BME280;24026;49.446;8.576;2023-05-01T11:48:52;100320.66;;;18.14;44.87
38227;BME280;24026;49.446;8.576;2023-05-01T11:51:13;100318.47;;;18.17;45.19
38227;BME280;24026;49.446;8.576;2023-05-01T11:53:33;100318.19;;;18.18;44.90
38227;BME280;24026;49.446;8.576;2023-05-01T11:55:53;100313.31;;;18.20;44.91
38227;BME280;24026;49.446;8.576;2023-05-01T11:58:14;100317.31;;;18.23;44.97
38227;BME280;24026;49.446;8.576;2023-05-01T12:00:35;100312.44;;;18.25;44.63
38227;BME280;24026;49.446;8.576;2023-05-01T12:03:00;100318.00;;;18.28;44.86
38227;BME280;24026;49.446;8.576;2023-05-01T12:05:21;100315.03;;;18.30;44.54
38227;BME280;24026;49.446;8.576;2023-05-01T12:07:42;100303.19;;;18.31;44.64
38227;BME280;24026;49.446;8.576;2023-05-01T12:10:02;100304.47;;;18.33;44.71
38227;BME280;24026;49.446;8.576;2023-05-01T12:12:23;100304.47;;;18.33;44.84
38227;BME280;24026;49.446;8.576;2023-05-01T12:14:43;100303.09;;;18.36;44.74
38227;BME280;24026;49.446;8.576;2023-05-01T12:17:04;100302.81;;;18.38;44.64
38227;BME280;24026;49.446;8.576;2023-05-01T12:19:25;100301.41;;;18.40;44.26
38227;BME280;24026;49.446;8.576;2023-05-01T12:21:45;100309.97;;;18.42;44.32
38227;BME280;24026;49.446;8.576;2023-05-01T12:24:06;100304.00;;;18.45;44.29
38227;BME280;24026;49.446;8.576;2023-05-01T12:26:27;100304.50;;;18.47;44.16
38227;BME280;24026;49.446;8.576;2023-05-01T12:29:03;100300.44;;;18.50;44.25
38227;BME280;24026;49.446;8.576;2023-05-01T12:31:24;100296.66;;;18.51;44.20
38227;BME280;24026;49.446;8.576;2023-05-01T12:33:51;100299.84;;;18.53;44.00
38227;BME280;24026;49.446;8.576;2023-05-01T12:36:12;100293.34;;;18.54;44.08
38227;BME280;24026;49.446;8.576;2023-05-01T12:38:32;100299.53;;;18.55;44.01
38227;BME280;24026;49.446;8.576;2023-05-01T12:40:53;100305.44;;;18.57;43.90
38227;BME280;24026;49.446;8.576;2023-05-01T12:43:14;100308.91;;;18.57;43.83